createdAt,value
2022-10-05T00:00:02.641Z,26.10
2022-10-05T00:00:33.200Z,26.53
2022-10-05T00:01:03.765Z,26.69
2022-10-05T00:01:34.416Z,26.69
2022-10-05T00:02:05.121Z,25.89
2022-10-05T00:02:35.737Z,26.32
2022-10-05T00:03:06.324Z,26.10
2022-10-05T00:03:36.965Z,25.89
2022-10-05T00:04:07.594Z,27.29
2022-10-05T00:04:38.150Z,26.64
2022-10-05T00:05:08.784Z,26.32
2022-10-05T00:05:39.371Z,26.37
2022-10-05T00:06:09.937Z,26.69
2022-10-05T00:06:40.492Z,26.21
2022-10-05T00:07:11.068Z,25.30
2022-10-05T00:07:41.601Z,26.21
2022-10-05T00:08:12.191Z,26.64
2022-10-05T00:08:42.760Z,24.71
2022-10-05T00:09:13.303Z,26.05
2022-10-05T00:09:43.847Z,25.41
2022-10-05T00:10:14.373Z,25.57
2022-10-05T00:10:44.964Z,26.96
2022-10-05T00:11:15.532Z,26.37
2022-10-05T00:11:46.079Z,25.89
2022-10-05T00:12:16.656Z,25.94
2022-10-05T00:12:47.181Z,26.00
2022-10-05T00:13:17.733Z,25.46
2022-10-05T00:13:48.274Z,25.35
2022-10-05T00:14:18.854Z,26.21
2022-10-05T00:14:49.439Z,25.30
2022-10-05T00:15:20.004Z,25.89
2022-10-05T00:15:50.582Z,26.32
2022-10-05T00:16:21.242Z,25.24
2022-10-05T00:16:52.010Z,25.35
2022-10-05T00:17:22.637Z,26.21
2022-10-05T00:17:53.220Z,26.32
2022-10-05T00:18:23.786Z,25.62
2022-10-05T00:18:54.369Z,26.32
2022-10-05T00:19:24.941Z,25.89
2022-10-05T00:19:55.500Z,26.05
2022-10-05T00:20:26.069Z,26.00
2022-10-05T00:20:56.603Z,26.37
2022-10-05T00:21:27.136Z,26.32
2022-10-05T00:21:57.685Z,26.96
2022-10-05T00:22:28.250Z,27.02
2022-10-05T00:22:58.838Z,24.60
2022-10-05T00:23:29.420Z,24.87
2022-10-05T00:23:59.989Z,24.55
2022-10-05T00:24:30.559Z,24.12
2022-10-05T00:25:01.136Z,24.87
2022-10-05T00:25:31.689Z,25.57
2022-10-05T00:26:02.296Z,25.51
2022-10-05T00:26:32.825Z,26.21
2022-10-05T00:27:03.411Z,25.24
2022-10-05T00:27:33.976Z,25.62
2022-10-05T00:28:04.656Z,24.92
2022-10-05T00:28:35.281Z,26.26
2022-10-05T00:29:05.891Z,24.81
2022-10-05T00:29:36.434Z,24.98
2022-10-05T00:30:06.996Z,26.16
2022-10-05T00:30:37.519Z,25.30
2022-10-05T00:31:08.075Z,25.35
2022-10-05T00:31:38.663Z,25.03
2022-10-05T00:32:09.237Z,25.35
2022-10-05T00:32:39.802Z,25.30
2022-10-05T00:33:10.332Z,26.16
2022-10-05T00:33:40.880Z,26.21
2022-10-05T00:34:11.478Z,25.94
2022-10-05T00:34:42.008Z,25.03
2022-10-05T00:35:12.592Z,25.35
2022-10-05T00:35:43.133Z,26.21
2022-10-05T00:36:13.705Z,25.83
2022-10-05T00:36:44.516Z,26.32
2022-10-05T00:37:15.239Z,24.98
2022-10-05T00:37:45.771Z,25.30
2022-10-05T00:38:16.311Z,25.57
2022-10-05T00:38:46.871Z,25.24
2022-10-05T00:39:17.458Z,25.08
2022-10-05T00:39:48.005Z,25.41
2022-10-05T00:40:18.582Z,25.67
2022-10-05T00:40:49.153Z,26.59
2022-10-05T00:41:19.751Z,25.35
2022-10-05T00:41:50.297Z,26.53
2022-10-05T00:42:20.847Z,26.96
2022-10-05T00:42:51.372Z,26.26
2022-10-05T00:43:21.946Z,25.35
2022-10-05T00:43:52.519Z,25.89
2022-10-05T00:44:23.091Z,26.59
2022-10-05T00:44:53.655Z,25.62
2022-10-05T00:45:24.222Z,26.59
2022-10-05T00:45:54.842Z,26.26
2022-10-05T00:46:25.403Z,25.35
2022-10-05T00:46:55.976Z,26.48
2022-10-05T00:47:26.588Z,25.94
2022-10-05T00:47:57.176Z,26.26
2022-10-05T00:48:27.752Z,26.26
2022-10-05T00:48:58.317Z,26.69
2022-10-05T00:49:28.849Z,26.00
2022-10-05T00:49:59.433Z,26.53
2022-10-05T00:50:30.007Z,25.94
2022-10-05T00:51:00.579Z,25.30
2022-10-05T00:51:31.171Z,25.67
2022-10-05T00:52:01.740Z,24.22
2022-10-05T00:52:32.297Z,24.92
2022-10-05T00:53:02.888Z,25.62
2022-10-05T00:53:33.440Z,24.55
2022-10-05T00:54:04.019Z,25.35
2022-10-05T00:54:34.582Z,25.19
2022-10-05T00:55:05.161Z,25.19
2022-10-05T00:55:35.775Z,25.41
2022-10-05T00:56:06.324Z,24.87
2022-10-05T00:56:36.898Z,24.01
2022-10-05T00:57:07.463Z,24.81
2022-10-05T00:57:38.012Z,24.12
2022-10-05T00:58:08.578Z,25.57
2022-10-05T00:58:39.112Z,25.67
2022-10-05T00:59:09.658Z,25.41
2022-10-05T00:59:40.194Z,25.24
2022-10-05T01:00:10.739Z,25.08
2022-10-05T01:00:41.325Z,24.71
2022-10-05T01:01:11.975Z,25.57
2022-10-05T01:01:42.575Z,24.22
2022-10-05T01:02:13.162Z,25.24
2022-10-05T01:02:43.752Z,24.55
2022-10-05T01:03:14.293Z,24.87
2022-10-05T01:03:44.862Z,24.92
2022-10-05T01:04:15.397Z,24.60
2022-10-05T01:04:45.961Z,25.14
2022-10-05T01:05:16.519Z,25.03
2022-10-05T01:05:47.084Z,24.55
2022-10-05T01:06:17.634Z,25.57
2022-10-05T01:06:48.552Z,24.22
2022-10-05T01:07:19.201Z,25.30
2022-10-05T01:07:49.731Z,23.96
2022-10-05T01:08:20.303Z,24.87
2022-10-05T01:08:50.872Z,25.62
2022-10-05T01:09:21.447Z,24.92
2022-10-05T01:09:52.012Z,24.12
2022-10-05T01:10:22.545Z,24.81
2022-10-05T01:10:53.136Z,24.28
2022-10-05T01:11:23.703Z,24.87
2022-10-05T01:11:54.291Z,25.62
2022-10-05T01:12:24.823Z,24.60
2022-10-05T01:12:55.361Z,24.60
2022-10-05T01:13:25.946Z,24.81
2022-10-05T01:13:56.540Z,25.41
2022-10-05T01:14:27.114Z,25.30
2022-10-05T01:14:57.680Z,26.00
2022-10-05T01:15:28.277Z,24.98
2022-10-05T01:15:59.061Z,25.30
2022-10-05T01:16:29.720Z,24.81
2022-10-05T01:17:00.342Z,25.35
2022-10-05T01:17:30.918Z,25.24
2022-10-05T01:18:01.441Z,25.03
2022-10-05T01:18:31.964Z,25.89
2022-10-05T01:19:02.551Z,25.19
2022-10-05T01:19:33.084Z,26.32
2022-10-05T01:20:03.669Z,25.35
2022-10-05T01:20:34.223Z,26.26
2022-10-05T01:21:04.811Z,25.67
2022-10-05T01:21:35.370Z,26.16
2022-10-05T01:22:05.911Z,25.46
2022-10-05T01:22:36.486Z,25.89
2022-10-05T01:23:07.024Z,24.92
2022-10-05T01:23:37.601Z,25.30
2022-10-05T01:24:08.144Z,26.37
2022-10-05T01:24:38.671Z,25.41
2022-10-05T01:25:09.206Z,25.94
2022-10-05T01:25:39.776Z,25.30
2022-10-05T01:26:10.312Z,26.16
2022-10-05T01:26:40.877Z,25.03
2022-10-05T01:27:11.484Z,25.89
2022-10-05T01:27:42.050Z,25.08
2022-10-05T01:28:12.707Z,24.98
2022-10-05T01:28:43.292Z,25.24
2022-10-05T01:29:13.840Z,24.98
2022-10-05T01:29:44.413Z,25.89
2022-10-05T01:30:14.993Z,25.89
2022-10-05T01:30:45.581Z,24.87
2022-10-05T01:31:16.189Z,24.60
2022-10-05T01:31:46.847Z,24.60
2022-10-05T01:32:17.504Z,25.62
2022-10-05T01:32:48.036Z,25.94
2022-10-05T01:33:18.594Z,26.16
2022-10-05T01:33:49.167Z,24.49
2022-10-05T01:34:19.707Z,25.30
2022-10-05T01:34:50.281Z,25.57
2022-10-05T01:35:20.864Z,26.21
2022-10-05T01:35:51.455Z,26.64
2022-10-05T01:36:22.025Z,25.41
2022-10-05T01:36:52.551Z,26.64
2022-10-05T01:37:23.122Z,24.55
2022-10-05T01:37:53.683Z,26.59
2022-10-05T01:38:24.261Z,25.35
2022-10-05T01:38:54.826Z,27.02
2022-10-05T01:39:25.390Z,26.96
2022-10-05T01:39:55.914Z,26.59
2022-10-05T01:40:26.473Z,26.16
2022-10-05T01:40:57.014Z,26.32
2022-10-05T01:41:27.550Z,26.32
2022-10-05T01:41:58.158Z,25.94
2022-10-05T01:42:28.745Z,26.05
2022-10-05T01:42:59.304Z,26.69
2022-10-05T01:43:29.878Z,24.87
2022-10-05T01:44:00.440Z,24.76
2022-10-05T01:44:30.985Z,24.28
2022-10-05T01:45:01.532Z,24.01
2022-10-05T01:45:32.143Z,24.92
2022-10-05T01:46:02.882Z,24.98
2022-10-05T01:46:33.461Z,24.81
2022-10-05T01:47:04.066Z,24.87
2022-10-05T01:47:34.610Z,24.81
2022-10-05T01:48:05.159Z,24.22
2022-10-05T01:48:35.716Z,24.65
2022-10-05T01:49:06.286Z,24.22
2022-10-05T01:49:36.844Z,24.49
2022-10-05T01:50:07.398Z,24.28
2022-10-05T01:50:37.965Z,24.92
2022-10-05T01:51:08.522Z,24.76
2022-10-05T01:51:38.269Z,24.28
2022-10-05T01:52:09.889Z,24.28
2022-10-05T01:52:40.413Z,24.55
2022-10-05T01:53:10.989Z,24.55
2022-10-05T01:53:41.549Z,25.19
2022-10-05T01:54:12.111Z,25.62
2022-10-05T01:54:42.643Z,25.30
2022-10-05T01:55:13.251Z,24.17
2022-10-05T01:55:43.820Z,25.51
2022-10-05T01:56:14.395Z,24.55
2022-10-05T01:56:45.330Z,25.35
2022-10-05T01:57:15.530Z,25.41
2022-10-05T01:57:46.144Z,24.71
2022-10-05T01:58:16.685Z,25.30
2022-10-05T01:58:47.253Z,25.62
2022-10-05T01:59:17.802Z,24.60
2022-10-05T01:59:48.374Z,24.87
2022-10-05T02:00:18.955Z,25.24
2022-10-05T02:00:49.566Z,24.71
2022-10-05T02:01:20.192Z,24.60
2022-10-05T02:01:50.795Z,24.76
2022-10-05T02:02:21.454Z,25.57
2022-10-05T02:02:51.997Z,24.98
2022-10-05T02:03:22.560Z,25.46
2022-10-05T02:03:53.149Z,25.08
2022-10-05T02:04:56.556Z,24.49
2022-10-05T02:05:02.043Z,24.81
2022-10-05T02:05:25.270Z,25.46
2022-10-05T02:05:55.857Z,24.55
2022-10-05T02:06:26.462Z,25.24
2022-10-05T02:06:57.021Z,25.41
2022-10-05T02:07:27.582Z,24.81
2022-10-05T02:07:58.296Z,24.01
2022-10-05T02:08:28.982Z,24.17
2022-10-05T02:08:59.510Z,24.92
2022-10-05T02:09:30.098Z,24.92
2022-10-05T02:10:00.660Z,24.28
2022-10-05T02:10:31.220Z,24.98
2022-10-05T02:11:01.801Z,23.96
2022-10-05T02:11:32.362Z,24.22
2022-10-05T02:12:02.951Z,24.81
2022-10-05T02:12:33.499Z,24.22
2022-10-05T02:13:04.077Z,24.98
2022-10-05T02:13:34.617Z,24.28
2022-10-05T02:14:05.147Z,24.06
2022-10-05T02:14:35.733Z,24.22
2022-10-05T02:15:06.306Z,24.76
2022-10-05T02:15:36.932Z,24.06
2022-10-05T02:16:07.585Z,24.81
2022-10-05T02:16:38.132Z,27.02
2022-10-05T02:17:08.689Z,25.62
2022-10-05T02:17:39.238Z,25.62
2022-10-05T02:18:09.820Z,27.02
2022-10-05T02:18:40.428Z,26.21
2022-10-05T02:19:10.979Z,26.32
2022-10-05T02:19:41.548Z,26.53
2022-10-05T02:20:12.121Z,26.64
2022-10-05T02:20:42.697Z,27.34
2022-10-05T02:21:13.241Z,28.36
2022-10-05T02:21:43.915Z,26.64
2022-10-05T02:22:14.480Z,27.50
2022-10-05T02:22:45.062Z,28.09
2022-10-05T02:23:15.635Z,27.55
2022-10-05T02:23:46.232Z,28.09
2022-10-05T02:24:16.802Z,27.98
2022-10-05T02:24:47.364Z,28.25
2022-10-05T02:25:17.926Z,27.55
2022-10-05T02:25:48.512Z,26.69
2022-10-05T02:26:19.081Z,27.88
2022-10-05T02:26:49.737Z,28.14
2022-10-05T02:27:20.269Z,26.91
2022-10-05T02:27:50.822Z,26.64
2022-10-05T02:28:21.485Z,26.64
2022-10-05T02:28:52.084Z,27.66
2022-10-05T02:29:22.657Z,27.82
2022-10-05T02:29:53.231Z,27.23
2022-10-05T02:30:23.772Z,27.82
2022-10-05T02:30:54.342Z,27.88
2022-10-05T02:31:25.045Z,26.26
2022-10-05T02:31:55.673Z,26.53
2022-10-05T02:32:26.290Z,26.16
2022-10-05T02:32:56.841Z,26.53
2022-10-05T02:33:27.413Z,24.60
2022-10-05T02:33:57.976Z,24.98
2022-10-05T02:34:28.516Z,24.87
2022-10-05T02:34:59.082Z,24.81
2022-10-05T02:35:29.616Z,24.06
2022-10-05T02:36:00.159Z,25.30
2022-10-05T02:36:30.697Z,24.87
2022-10-05T02:37:01.275Z,25.24
2022-10-05T02:37:31.837Z,25.51
2022-10-05T02:38:02.390Z,25.35
2022-10-05T02:38:32.906Z,24.98
2022-10-05T02:39:03.459Z,25.41
2022-10-05T02:39:34.022Z,24.76
2022-10-05T02:40:04.582Z,25.46
2022-10-05T02:40:35.146Z,25.30
2022-10-05T02:41:05.730Z,24.92
2022-10-05T02:41:36.255Z,25.24
2022-10-05T02:42:06.809Z,24.81
2022-10-05T02:42:37.353Z,25.30
2022-10-05T02:43:07.899Z,26.21
2022-10-05T02:43:38.513Z,24.28
2022-10-05T02:44:09.136Z,25.35
2022-10-05T02:44:39.681Z,24.55
2022-10-05T02:45:10.233Z,24.92
2022-10-05T02:45:40.884Z,24.28
2022-10-05T02:46:11.583Z,24.81
2022-10-05T02:46:42.127Z,24.92
2022-10-05T02:47:12.707Z,25.19
2022-10-05T02:47:43.293Z,24.81
2022-10-05T02:48:13.861Z,24.98
2022-10-05T02:48:44.450Z,24.22
2022-10-05T02:49:15.014Z,25.30
2022-10-05T02:49:45.621Z,25.46
2022-10-05T02:50:16.194Z,25.41
2022-10-05T02:50:46.740Z,24.55
2022-10-05T02:51:17.271Z,24.98
2022-10-05T02:51:47.809Z,25.03
2022-10-05T02:52:18.355Z,24.22
2022-10-05T02:52:48.901Z,25.19
2022-10-05T02:53:19.487Z,25.24
2022-10-05T02:53:50.059Z,24.92
2022-10-05T02:54:20.613Z,25.19
2022-10-05T02:54:51.161Z,24.55
2022-10-05T02:55:21.745Z,25.19
2022-10-05T02:55:52.323Z,24.55
2022-10-05T02:56:22.888Z,23.96
2022-10-05T02:56:53.441Z,25.57
2022-10-05T02:57:23.977Z,25.67
2022-10-05T02:57:54.557Z,25.30
2022-10-05T02:58:25.110Z,25.67
2022-10-05T02:58:55.674Z,24.60
2022-10-05T02:59:26.233Z,24.44
2022-10-05T02:59:56.827Z,24.60
2022-10-05T03:00:27.387Z,24.87
2022-10-05T03:00:57.982Z,24.55
2022-10-05T03:01:28.587Z,24.60
2022-10-05T03:01:59.283Z,24.81
2022-10-05T03:02:29.946Z,24.60
2022-10-05T03:03:00.522Z,24.98
2022-10-05T03:03:31.081Z,25.14
2022-10-05T03:04:01.702Z,24.98
2022-10-05T03:04:32.287Z,24.71
2022-10-05T03:05:02.818Z,25.30
2022-10-05T03:05:33.396Z,25.03
2022-10-05T03:06:03.929Z,25.14
2022-10-05T03:06:34.496Z,24.87
2022-10-05T03:07:05.053Z,24.49
2022-10-05T03:07:35.634Z,24.55
2022-10-05T03:08:06.179Z,24.55
2022-10-05T03:08:36.711Z,24.81
2022-10-05T03:09:07.262Z,25.57
2022-10-05T03:09:37.830Z,24.28
2022-10-05T03:10:08.389Z,24.87
2022-10-05T03:10:38.967Z,25.46
2022-10-05T03:11:09.512Z,25.30
2022-10-05T03:11:40.076Z,24.81
2022-10-05T03:12:10.638Z,24.87
2022-10-05T03:12:41.196Z,25.51
2022-10-05T03:13:11.720Z,25.62
2022-10-05T03:13:42.266Z,24.28
2022-10-05T03:14:12.856Z,24.87
2022-10-05T03:14:43.407Z,24.60
2022-10-05T03:15:13.970Z,25.30
2022-10-05T03:15:44.591Z,25.30
2022-10-05T03:16:15.260Z,25.30
2022-10-05T03:16:46.177Z,25.35
2022-10-05T03:17:16.398Z,25.30
2022-10-05T03:17:46.992Z,24.71
2022-10-05T03:18:17.520Z,24.71
2022-10-05T03:18:48.067Z,24.81
2022-10-05T03:19:18.631Z,24.87
2022-10-05T03:19:49.206Z,26.16
2022-10-05T03:20:19.745Z,26.16
2022-10-05T03:20:50.328Z,26.21
2022-10-05T03:21:20.908Z,26.80
2022-10-05T03:21:51.514Z,27.55
2022-10-05T03:22:22.089Z,27.39
2022-10-05T03:22:52.629Z,27.23
2022-10-05T03:23:23.157Z,27.55
2022-10-05T03:23:53.697Z,26.59
2022-10-05T03:24:24.263Z,26.59
2022-10-05T03:24:54.815Z,26.69
2022-10-05T03:25:25.409Z,26.48
2022-10-05T03:25:55.984Z,25.94
2022-10-05T03:26:26.513Z,26.80
2022-10-05T03:26:57.051Z,26.21
2022-10-05T03:27:27.611Z,26.96
2022-10-05T03:27:58.281Z,26.69
2022-10-05T03:28:28.923Z,25.94
2022-10-05T03:28:59.515Z,27.61
2022-10-05T03:29:30.101Z,26.75
2022-10-05T03:30:00.645Z,25.94
2022-10-05T03:30:31.208Z,27.55
2022-10-05T03:31:01.940Z,27.29
2022-10-05T03:31:32.603Z,26.00
2022-10-05T03:32:03.200Z,26.75
2022-10-05T03:32:33.744Z,27.29
2022-10-05T03:33:04.300Z,26.53
2022-10-05T03:33:34.827Z,26.59
2022-10-05T03:34:05.398Z,26.69
2022-10-05T03:34:35.980Z,27.23
2022-10-05T03:35:06.558Z,26.32
2022-10-05T03:35:37.077Z,26.10
2022-10-05T03:36:07.623Z,27.50
2022-10-05T03:36:38.190Z,26.32
2022-10-05T03:37:08.752Z,27.29
2022-10-05T03:37:39.299Z,26.96
2022-10-05T03:38:09.857Z,25.94
2022-10-05T03:38:40.443Z,27.23
2022-10-05T03:39:11.000Z,26.53
2022-10-05T03:39:41.573Z,27.29
2022-10-05T03:40:12.584Z,26.53
2022-10-05T03:40:43.166Z,27.45
2022-10-05T03:41:13.690Z,26.59
2022-10-05T03:41:44.232Z,27.39
2022-10-05T03:42:14.790Z,26.75
2022-10-05T03:42:45.357Z,26.32
2022-10-05T03:43:15.949Z,27.23
2022-10-05T03:43:46.548Z,26.59
2022-10-05T03:44:17.118Z,26.69
2022-10-05T03:44:47.717Z,26.64
2022-10-05T03:45:18.260Z,26.64
2022-10-05T03:45:48.916Z,26.53
2022-10-05T03:46:19.576Z,27.55
2022-10-05T03:46:50.500Z,27.50
2022-10-05T03:47:21.169Z,27.23
2022-10-05T03:47:51.727Z,27.50
2022-10-05T03:48:22.303Z,26.32
2022-10-05T03:48:52.839Z,27.39
2022-10-05T03:49:23.406Z,27.55
2022-10-05T03:49:53.924Z,27.34
2022-10-05T03:50:24.490Z,27.34
2022-10-05T03:50:55.056Z,27.29
2022-10-05T03:51:25.652Z,27.50
2022-10-05T03:51:56.217Z,27.55
2022-10-05T03:52:26.804Z,27.61
2022-10-05T03:52:57.377Z,26.26
2022-10-05T03:53:27.962Z,26.59
2022-10-05T03:53:58.533Z,27.29
2022-10-05T03:54:29.448Z,26.26
2022-10-05T03:55:00.036Z,26.32
2022-10-05T03:55:30.618Z,26.32
2022-10-05T03:56:03.250Z,26.64
2022-10-05T03:56:31.897Z,26.43
2022-10-05T03:57:02.449Z,26.69
2022-10-05T03:57:32.976Z,27.61
2022-10-05T03:58:03.550Z,26.43
2022-10-05T03:58:34.086Z,27.39
2022-10-05T03:59:04.622Z,26.26
2022-10-05T03:59:35.175Z,27.23
2022-10-05T04:00:05.784Z,27.39
2022-10-05T04:00:36.318Z,26.64
2022-10-05T04:01:06.948Z,26.37
2022-10-05T04:01:37.570Z,26.59
2022-10-05T04:02:08.357Z,26.59
2022-10-05T04:02:39.024Z,26.32
2022-10-05T04:03:09.626Z,25.57
2022-10-05T04:03:40.169Z,26.26
2022-10-05T04:04:10.744Z,25.62
2022-10-05T04:04:41.269Z,26.32
2022-10-05T04:05:11.824Z,26.05
2022-10-05T04:05:42.414Z,26.05
2022-10-05T04:06:12.967Z,26.86
2022-10-05T04:06:43.630Z,25.94
2022-10-05T04:07:14.257Z,26.32
2022-10-05T04:07:44.840Z,26.37
2022-10-05T04:08:15.388Z,26.69
2022-10-05T04:08:48.130Z,26.91
2022-10-05T04:09:16.812Z,26.26
2022-10-05T04:09:47.385Z,25.89
2022-10-05T04:10:17.932Z,26.59
2022-10-05T04:10:48.515Z,26.91
2022-10-05T04:11:19.085Z,26.96
2022-10-05T04:11:49.619Z,26.48
2022-10-05T04:12:20.167Z,26.59
2022-10-05T04:12:50.770Z,26.21
2022-10-05T04:13:21.298Z,26.16
2022-10-05T04:13:51.858Z,27.02
2022-10-05T04:14:22.418Z,26.32
2022-10-05T04:14:52.985Z,25.89
2022-10-05T04:15:23.606Z,25.94
2022-10-05T04:15:54.247Z,27.50
2022-10-05T04:16:24.903Z,26.05
2022-10-05T04:16:55.516Z,25.89
2022-10-05T04:17:26.072Z,26.69
2022-10-05T04:17:56.660Z,26.96
2022-10-05T04:18:27.223Z,27.23
2022-10-05T04:18:57.786Z,25.89
2022-10-05T04:19:28.360Z,27.45
2022-10-05T04:19:58.904Z,26.64
2022-10-05T04:20:29.469Z,26.32
2022-10-05T04:21:00.106Z,26.64
2022-10-05T04:21:30.643Z,25.83
2022-10-05T04:22:01.220Z,26.59
2022-10-05T04:22:31.787Z,26.75
2022-10-05T04:23:02.320Z,26.00
2022-10-05T04:23:32.858Z,27.34
2022-10-05T04:24:03.409Z,27.29
2022-10-05T04:24:33.949Z,27.29
2022-10-05T04:25:04.555Z,27.45
2022-10-05T04:25:35.076Z,26.32
2022-10-05T04:26:05.658Z,26.69
2022-10-05T04:26:36.289Z,26.59
2022-10-05T04:27:06.878Z,26.96
2022-10-05T04:27:37.408Z,26.64
2022-10-05T04:28:08.059Z,26.00
2022-10-05T04:28:38.716Z,26.96
2022-10-05T04:29:09.288Z,26.37
2022-10-05T04:29:39.861Z,26.32
2022-10-05T04:30:10.433Z,26.43
2022-10-05T04:30:41.072Z,26.91
2022-10-05T04:31:11.678Z,25.30
2022-10-05T04:31:42.269Z,26.32
2022-10-05T04:32:12.840Z,26.43
2022-10-05T04:32:43.405Z,26.37
2022-10-05T04:33:13.959Z,25.89
2022-10-05T04:33:44.525Z,26.10
2022-10-05T04:34:15.098Z,27.29
2022-10-05T04:34:45.631Z,26.64
2022-10-05T04:35:16.197Z,27.29
2022-10-05T04:35:46.761Z,26.21
2022-10-05T04:36:17.326Z,26.86
2022-10-05T04:36:48.242Z,27.02
2022-10-05T04:37:18.469Z,26.96
2022-10-05T04:37:49.014Z,26.75
2022-10-05T04:38:19.570Z,25.94
2022-10-05T04:38:50.144Z,26.59
2022-10-05T04:39:20.691Z,26.21
2022-10-05T04:39:51.252Z,26.21
2022-10-05T04:40:21.787Z,26.26
2022-10-05T04:40:52.350Z,26.96
2022-10-05T04:41:22.941Z,26.96
2022-10-05T04:41:53.534Z,26.69
2022-10-05T04:42:24.107Z,27.07
2022-10-05T04:42:54.685Z,26.37
2022-10-05T04:43:25.231Z,27.23
2022-10-05T04:43:55.809Z,27.29
2022-10-05T04:44:26.363Z,26.69
2022-10-05T04:44:59.224Z,25.94
2022-10-05T04:45:27.937Z,27.02
2022-10-05T04:45:58.558Z,26.75
2022-10-05T04:46:29.110Z,26.53
2022-10-05T04:46:59.694Z,27.29
2022-10-05T04:47:30.280Z,26.32
2022-10-05T04:48:00.805Z,26.86
2022-10-05T04:48:31.341Z,26.96
2022-10-05T04:49:01.879Z,26.10
2022-10-05T04:49:32.451Z,26.64
2022-10-05T04:50:03.033Z,27.55
2022-10-05T04:50:33.583Z,26.75
2022-10-05T04:51:04.159Z,25.94
2022-10-05T04:51:34.705Z,26.21
2022-10-05T04:52:05.260Z,26.32
2022-10-05T04:52:35.821Z,26.64
2022-10-05T04:53:06.354Z,26.64
2022-10-05T04:53:36.899Z,26.37
2022-10-05T04:54:07.446Z,26.96
2022-10-05T04:54:37.994Z,26.26
2022-10-05T04:55:08.462Z,26.59
2022-10-05T04:55:39.563Z,26.91
2022-10-05T04:56:09.327Z,26.32
2022-10-05T04:56:40.903Z,26.05
2022-10-05T04:57:11.382Z,27.23
2022-10-05T04:57:42.395Z,26.26
2022-10-05T04:58:13.423Z,26.16
2022-10-05T04:58:44.447Z,25.89
2022-10-05T04:59:14.191Z,27.39
2022-10-05T04:59:45.829Z,27.61
2022-10-05T05:00:16.380Z,25.89
2022-10-05T05:00:46.939Z,26.32
2022-10-05T05:01:17.531Z,26.96
2022-10-05T05:01:47.253Z,26.64
2022-10-05T05:02:18.322Z,27.55
2022-10-05T05:02:49.884Z,26.75
2022-10-05T05:03:20.538Z,26.91
2022-10-05T05:03:50.354Z,26.37
2022-10-05T05:04:21.975Z,26.96
2022-10-05T05:04:52.499Z,26.96
2022-10-05T05:05:22.101Z,26.75
2022-10-05T05:06:15.877Z,25.89
2022-10-05T05:06:24.642Z,26.75
2022-10-05T05:06:54.340Z,26.75
2022-10-05T05:07:25.931Z,26.64
2022-10-05T05:07:56.668Z,26.69
2022-10-05T05:08:27.161Z,26.96
2022-10-05T05:08:57.783Z,26.96
2022-10-05T05:09:28.849Z,27.39
2022-10-05T05:09:59.382Z,26.96
2022-10-05T05:10:29.897Z,27.34
2022-10-05T05:10:59.848Z,26.53
2022-10-05T05:11:31.424Z,26.59
2022-10-05T05:12:01.125Z,26.10
2022-10-05T05:12:32.683Z,26.53
2022-10-05T05:13:03.722Z,27.39
2022-10-05T05:13:34.230Z,26.86
2022-10-05T05:14:03.875Z,27.02
2022-10-05T05:14:35.451Z,26.91
2022-10-05T05:15:06.449Z,25.89
2022-10-05T05:15:36.143Z,26.69
2022-10-05T05:16:07.979Z,26.21
2022-10-05T05:16:37.828Z,26.96
2022-10-05T05:17:13.039Z,27.55
2022-10-05T05:17:39.381Z,26.96
2022-10-05T05:18:10.140Z,26.00
2022-10-05T05:18:41.661Z,26.53
2022-10-05T05:19:12.635Z,26.26
2022-10-05T05:19:43.674Z,25.94
2022-10-05T05:20:14.697Z,26.64
2022-10-05T05:20:44.552Z,26.64
2022-10-05T05:21:15.296Z,25.89
2022-10-05T05:21:46.835Z,27.23
2022-10-05T05:22:17.873Z,26.96
2022-10-05T05:22:47.837Z,26.16
2022-10-05T05:23:19.410Z,26.75
2022-10-05T05:23:49.117Z,27.45
2022-10-05T05:24:19.854Z,26.59
2022-10-05T05:24:51.410Z,27.23
2022-10-05T05:25:21.925Z,26.96
2022-10-05T05:25:52.941Z,25.89
2022-10-05T05:26:23.947Z,26.10
2022-10-05T05:26:54.967Z,27.55
2022-10-05T05:27:25.968Z,27.50
2022-10-05T05:27:57.007Z,26.64
2022-10-05T05:28:27.592Z,26.59
2022-10-05T05:28:57.317Z,26.00
2022-10-05T05:29:28.883Z,26.96
2022-10-05T05:29:59.403Z,26.80
2022-10-05T05:30:30.429Z,26.10
2022-10-05T05:31:00.206Z,27.50
2022-10-05T05:31:31.822Z,26.26
2022-10-05T05:32:01.557Z,27.02
2022-10-05T05:32:32.294Z,27.29
2022-10-05T05:33:03.859Z,26.86
2022-10-05T05:33:33.856Z,26.16
2022-10-05T05:34:05.458Z,27.34
2022-10-05T05:34:36.468Z,26.59
2022-10-05T05:35:06.317Z,26.64
2022-10-05T05:35:37.078Z,26.86
2022-10-05T05:36:07.810Z,25.94
2022-10-05T05:36:39.379Z,27.23
2022-10-05T05:37:10.403Z,26.96
2022-10-05T05:37:40.088Z,27.23
2022-10-05T05:38:11.636Z,27.55
2022-10-05T05:38:41.316Z,26.26
2022-10-05T05:39:12.035Z,27.02
2022-10-05T05:39:43.593Z,26.37
2022-10-05T05:40:14.606Z,26.26
2022-10-05T05:40:45.742Z,25.89
2022-10-05T05:41:16.248Z,27.55
2022-10-05T05:41:47.254Z,26.69
2022-10-05T05:42:18.292Z,25.46
2022-10-05T05:42:49.286Z,26.16
2022-10-05T05:43:20.321Z,26.21
2022-10-05T05:43:50.018Z,26.96
2022-10-05T05:44:21.581Z,26.32
2022-10-05T05:44:51.464Z,25.83
2022-10-05T05:45:23.118Z,27.45
2022-10-05T05:45:52.788Z,26.96
2022-10-05T05:46:38.877Z,26.26
2022-10-05T05:47:04.491Z,26.26
2022-10-05T05:47:25.893Z,27.45
2022-10-05T05:47:56.385Z,26.96
2022-10-05T05:48:27.401Z,27.55
2022-10-05T05:48:58.105Z,27.66
2022-10-05T05:49:29.109Z,27.50
2022-10-05T05:50:05.611Z,26.43
2022-10-05T05:50:30.371Z,27.02
2022-10-05T05:51:00.891Z,27.39
2022-10-05T05:51:30.584Z,27.61
2022-10-05T05:52:02.143Z,27.23
2022-10-05T05:52:31.832Z,27.50
2022-10-05T05:53:03.357Z,27.50
2022-10-05T05:53:34.414Z,27.50
2022-10-05T05:54:04.104Z,27.34
2022-10-05T05:54:34.843Z,26.48
2022-10-05T05:55:06.436Z,27.66
2022-10-05T05:55:36.130Z,26.75
2022-10-05T05:56:07.651Z,27.39
2022-10-05T05:56:37.618Z,26.59
2022-10-05T05:57:09.176Z,26.75
2022-10-05T05:57:40.179Z,26.69
2022-10-05T05:58:10.185Z,27.55
2022-10-05T05:58:41.749Z,26.75
2022-10-05T05:59:11.445Z,26.37
2022-10-05T05:59:43.021Z,27.50
2022-10-05T06:00:14.030Z,26.26
2022-10-05T06:00:44.753Z,26.32
2022-10-05T06:01:31.741Z,26.64
2022-10-05T06:01:46.592Z,26.96
2022-10-05T06:02:16.565Z,26.32
2022-10-05T06:02:48.357Z,27.55
2022-10-05T06:03:19.077Z,26.64
2022-10-05T06:03:49.623Z,26.53
2022-10-05T06:04:20.645Z,26.26
2022-10-05T06:04:51.705Z,26.26
2022-10-05T06:05:21.232Z,26.43
2022-10-05T06:05:53.786Z,26.43
2022-10-05T06:06:23.779Z,26.32
2022-10-05T06:06:54.292Z,25.19
2022-10-05T06:07:29.477Z,25.62
2022-10-05T06:07:56.000Z,25.67
2022-10-05T06:08:27.030Z,26.37
2022-10-05T06:08:58.057Z,25.89
2022-10-05T06:09:29.059Z,25.89
2022-10-05T06:10:00.118Z,25.19
2022-10-05T06:10:30.604Z,26.10
2022-10-05T06:11:00.293Z,25.30
2022-10-05T06:11:31.837Z,26.00
2022-10-05T06:12:01.814Z,26.16
2022-10-05T06:12:32.550Z,24.87
2022-10-05T06:13:04.072Z,24.92
2022-10-05T06:13:33.759Z,25.89
2022-10-05T06:14:04.519Z,25.35
2022-10-05T06:14:35.248Z,25.94
2022-10-05T06:15:05.969Z,26.00
2022-10-05T06:15:37.494Z,26.16
2022-10-05T06:16:08.538Z,25.94
2022-10-05T06:16:39.298Z,25.35
2022-10-05T06:17:09.021Z,26.48
2022-10-05T06:17:40.584Z,25.35
2022-10-05T06:18:11.132Z,25.35
2022-10-05T06:18:40.818Z,26.00
2022-10-05T06:19:12.386Z,25.14
2022-10-05T06:19:42.080Z,24.60
2022-10-05T06:20:13.619Z,25.03
2022-10-05T06:20:43.609Z,24.92
2022-10-05T06:21:15.173Z,25.83
2022-10-05T06:21:45.702Z,25.62
2022-10-05T06:22:15.407Z,25.30
2022-10-05T06:22:46.428Z,24.65
2022-10-05T06:23:17.996Z,24.49
2022-10-05T06:23:47.679Z,25.62
2022-10-05T06:24:19.725Z,24.55
2022-10-05T06:24:49.725Z,24.65
2022-10-05T06:25:21.291Z,25.89
2022-10-05T06:25:50.979Z,26.16
2022-10-05T06:26:22.522Z,25.89
2022-10-05T06:26:53.521Z,26.10
2022-10-05T06:27:24.520Z,25.94
2022-10-05T06:27:54.298Z,26.21
2022-10-05T06:28:25.945Z,26.26
2022-10-05T06:28:56.457Z,26.43
2022-10-05T06:29:27.479Z,26.32
2022-10-05T06:29:57.326Z,27.55
2022-10-05T06:30:29.113Z,27.23
2022-10-05T06:30:59.647Z,26.53
2022-10-05T06:31:30.245Z,27.02
2022-10-05T06:32:00.875Z,27.02
2022-10-05T06:32:31.358Z,26.53
2022-10-05T06:33:02.413Z,26.32
2022-10-05T06:33:33.206Z,26.80
2022-10-05T06:34:06.782Z,26.64